Time;durP1;ratioP1;P1;durP2;ratioP2;P2;SDS_P1;SDS_P2;PMS_P1;PMS_P2;Temp;Humidity;BMP_temperature;BMP_pressure;BME280_temperature;BME280_humidity;BME280_pressure;Samples;Min_cycle;Max_cycle;Signal;HPM_P1;HPM_P2
2021/08/12 00:01:16;;;;;;;35.77;32.30;;;16.90;96.80;;;;;;5032419;28;20045;-67
2021/08/12 00:03:42;;;;;;;37.03;32.13;;;16.80;96.70;;;;;;5033228;28;20506;-67
2021/08/12 00:06:08;;;;;;;33.43;28.63;;;16.80;96.70;;;;;;5032813;28;20053;-67
2021/08/12 00:08:34;;;;;;;30.80;27.07;;;16.70;96.70;;;;;;5032599;28;20050;-67
2021/08/12 00:10:59;;;;;;;27.80;24.90;;;16.70;96.70;;;;;;5032944;28;20107;-66
2021/08/12 00:13:25;;;;;;;27.77;24.87;;;16.60;96.70;;;;;;5033255;28;20473;-67
2021/08/12 00:15:51;;;;;;;27.47;24.63;;;16.60;96.80;;;;;;5032488;28;20459;-67
2021/08/12 00:18:17;;;;;;;32.63;28.20;;;16.60;96.80;;;;;;5032381;28;20402;-67
2021/08/12 00:20:42;;;;;;;35.97;29.17;;;16.50;96.80;;;;;;5032974;28;20049;-66
2021/08/12 00:23:08;;;;;;;40.23;31.63;;;16.50;96.70;;;;;;5031695;28;20049;-66
2021/08/12 00:25:34;;;;;;;45.17;33.70;;;16.50;96.70;;;;;;5032599;28;20061;-66
2021/08/12 00:27:59;;;;;;;34.97;30.00;;;16.50;96.80;;;;;;5032069;28;20049;-66
2021/08/12 00:30:25;;;;;;;41.87;30.73;;;16.50;96.90;;;;;;5032207;28;20050;-66
2021/08/12 00:32:54;;;;;;;50.73;33.33;;;16.40;96.90;;;;;;5032389;28;20103;-66
2021/08/12 00:35:20;;;;;;;63.57;34.37;;;16.40;96.90;;;;;;5032386;28;20068;-66
2021/08/12 00:37:46;;;;;;;50.67;31.27;;;16.30;96.90;;;;;;5031681;28;20049;-67
2021/08/12 00:40:13;;;;;;;30.63;25.43;;;16.20;97.00;;;;;;5032240;28;20513;-66
2021/08/12 00:42:39;;;;;;;30.13;27.23;;;16.20;97.10;;;;;;5032415;28;20064;-66
2021/08/12 00:45:05;;;;;;;29.23;26.37;;;16.20;97.20;;;;;;5031363;28;20057;-66
2021/08/12 00:47:31;;;;;;;27.60;24.80;;;16.10;97.20;;;;;;5032232;28;20453;-67
2021/08/12 00:49:56;;;;;;;30.20;27.33;;;16.20;97.10;;;;;;5032382;28;20061;-66
2021/08/12 00:52:23;;;;;;;33.03;29.83;;;16.20;97.10;;;;;;5030731;28;20042;-66
2021/08/12 00:54:49;;;;;;;28.47;25.77;;;16.20;97.10;;;;;;5032385;28;20099;-67
2021/08/12 00:57:16;;;;;;;30.13;27.40;;;16.10;97.10;;;;;;5031919;28;20049;-67
2021/08/12 00:59:42;;;;;;;29.90;27.03;;;16.10;97.10;;;;;;5031461;28;20107;-66
2021/08/12 01:02:14;;;;;;;29.10;26.70;;;16.10;97.10;;;;;;5031743;28;20041;-66
2021/08/12 01:04:42;;;;;;;28.47;26.00;;;16.10;97.10;;;;;;5031479;28;20053;-67
2021/08/12 01:07:13;;;;;;;28.63;26.03;;;16.10;97.10;;;;;;5031841;28;20046;-66
2021/08/12 01:09:50;;;;;;;29.55;26.77;;;16.00;97.10;;;;;;5032448;28;20055;-66
2021/08/12 01:12:51;;;;;;;30.93;28.03;;;16.10;97.10;;;;;;5030831;28;20049;-66
2021/08/12 01:15:25;;;;;;;30.63;27.73;;;16.00;97.10;;;;;;5024509;28;20528;-67
2021/08/12 01:18:00;;;;;;;27.97;25.57;;;16.00;97.20;;;;;;5031710;28;20057;-66
2021/08/12 01:20:44;;;;;;;26.57;24.27;;;16.00;97.20;;;;;;5031141;28;20185;-66
2021/08/12 01:23:12;;;;;;;26.10;23.70;;;16.00;97.20;;;;;;5031281;28;20057;-66
2021/08/12 01:25:40;;;;;;;24.37;22.17;;;15.90;97.20;;;;;;5031000;28;20152;-66
2021/08/12 01:28:14;;;;;;;24.27;21.97;;;15.90;97.20;;;;;;5031154;28;20065;-66
2021/08/12 01:30:53;;;;;;;22.00;19.87;;;15.90;97.20;;;;;;5032103;28;20073;-66
2021/08/12 01:33:53;;;;;;;22.40;20.20;;;15.90;97.20;;;;;;5030612;28;20065;-66
2021/08/12 01:36:22;;;;;;;21.37;19.17;;;15.80;97.10;;;;;;5031221;28;20494;-66
2021/08/12 01:38:49;;;;;;;20.50;18.50;;;15.80;97.10;;;;;;5031887;28;20095;-66
2021/08/12 01:41:16;;;;;;;20.07;18.17;;;15.80;97.10;;;;;;5030523;28;20138;-66
2021/08/12 01:43:42;;;;;;;21.27;19.10;;;15.70;97.10;;;;;;5031690;28;20056;-66
2021/08/12 01:46:09;;;;;;;18.23;16.53;;;15.70;97.10;;;;;;5031172;28;20053;-66
2021/08/12 01:48:36;;;;;;;20.83;18.87;;;15.70;97.10;;;;;;5030838;28;20053;-66
2021/08/12 01:51:02;;;;;;;18.90;17.20;;;15.70;97.10;;;;;;5030529;28;20136;-66
2021/08/12 01:53:29;;;;;;;15.73;14.33;;;15.70;97.10;;;;;;5031355;28;20463;-67
2021/08/12 01:55:57;;;;;;;18.67;16.53;;;15.70;97.10;;;;;;5031110;28;20049;-66
2021/08/12 01:58:26;;;;;;;19.17;17.40;;;15.70;97.10;;;;;;5031357;28;20068;-66
2021/08/12 02:00:53;;;;;;;18.20;16.50;;;15.70;97.10;;;;;;5030970;28;20057;-66
2021/08/12 02:03:20;;;;;;;17.50;15.77;;;15.60;97.10;;;;;;5031107;28;20053;-66
2021/08/12 02:05:48;;;;;;;18.57;16.87;;;15.60;97.20;;;;;;5034937;28;20059;-66
2021/08/12 02:08:17;;;;;;;17.83;16.23;;;15.60;97.10;;;;;;5034695;28;20054;-66
2021/08/12 02:10:43;;;;;;;19.20;17.20;;;15.60;97.10;;;;;;5035724;28;20492;-66
2021/08/12 02:13:10;;;;;;;17.97;16.20;;;15.60;97.10;;;;;;5035357;28;20132;-67
2021/08/12 02:15:36;;;;;;;19.17;17.27;;;15.60;97.10;;;;;;5034966;28;20058;-67
2021/08/12 02:18:02;;;;;;;16.60;15.00;;;15.50;97.60;;;;;;5034994;28;20068;-66
2021/08/12 02:20:27;;;;;;;20.50;18.30;;;15.50;97.30;;;;;;5035606;28;20053;-66
2021/08/12 02:23:00;;;;;;;18.77;16.97;;;15.50;97.40;;;;;;5035007;28;20068;-66
2021/08/12 02:25:29;;;;;;;17.63;15.83;;;15.50;97.40;;;;;;5035446;28;20053;-66
2021/08/12 02:27:57;;;;;;;18.03;16.33;;;15.50;97.40;;;;;;5035285;28;20053;-66
2021/08/12 02:30:23;;;;;;;19.03;17.13;;;15.40;97.30;;;;;;5034295;28;20052;-66
2021/08/12 02:32:51;;;;;;;17.57;15.90;;;15.40;97.40;;;;;;5035425;28;20076;-66
2021/08/12 02:35:19;;;;;;;18.10;16.33;;;15.40;97.40;;;;;;5035124;28;20049;-66
2021/08/12 02:37:46;;;;;;;18.07;16.37;;;15.40;97.50;;;;;;5034689;28;20041;-66
2021/08/12 02:40:11;;;;;;;18.40;16.57;;;15.40;97.50;;;;;;5034960;28;20057;-66
2021/08/12 02:42:41;;;;;;;17.97;16.30;;;15.40;97.40;;;;;;5035251;28;20493;-66
2021/08/12 02:45:09;;;;;;;16.30;14.17;;;15.40;97.40;;;;;;5033829;28;20514;-66
2021/08/12 02:47:35;;;;;;;16.60;15.03;;;15.40;97.50;;;;;;5035262;28;20053;-66
2021/08/12 02:50:04;;;;;;;17.47;15.67;;;15.30;97.40;;;;;;5034106;28;20068;-67
2021/08/12 02:52:33;;;;;;;15.13;13.43;;;15.40;97.40;;;;;;5035010;28;20135;-66
2021/08/12 02:55:00;;;;;;;16.00;14.40;;;15.30;97.40;;;;;;5034974;28;20076;-66
2021/08/12 02:57:26;;;;;;;16.20;14.47;;;15.30;97.50;;;;;;5034049;28;20527;-66
2021/08/12 02:59:52;;;;;;;15.97;14.40;;;15.30;97.40;;;;;;5034982;28;20045;-66
2021/08/12 03:02:19;;;;;;;15.50;13.87;;;15.30;97.40;;;;;;5034530;28;20081;-66
2021/08/12 03:04:45;;;;;;;13.27;12.07;;;15.30;97.30;;;;;;5034036;28;20057;-67
2021/08/12 03:07:12;;;;;;;15.73;14.17;;;15.20;97.30;;;;;;5034615;28;20534;-66
2021/08/12 03:09:40;;;;;;;15.50;14.10;;;15.30;97.30;;;;;;5034532;28;20498;-66
2021/08/12 03:12:07;;;;;;;15.33;13.87;;;15.30;97.30;;;;;;5033419;28;20088;-66
2021/08/12 03:14:35;;;;;;;16.80;14.27;;;15.20;97.30;;;;;;5034746;28;20041;-66
2021/08/12 03:17:02;;;;;;;15.57;14.17;;;15.20;97.30;;;;;;5033942;28;20354;-66
2021/08/12 03:19:28;;;;;;;16.90;15.30;;;15.20;97.40;;;;;;5033686;28;20053;-66
2021/08/12 03:22:11;;;;;;;14.90;11.00;;;15.20;97.50;;;;;;5034661;28;20052;-66
2021/08/12 03:24:42;;;;;;;15.40;14.00;;;15.30;97.50;;;;;;5034054;28;20128;-66
2021/08/12 03:27:13;;;;;;;14.23;12.93;;;15.20;97.50;;;;;;5033250;28;20479;-66
2021/08/12 03:29:41;;;;;;;15.17;13.10;;;15.30;97.50;;;;;;5034318;28;20052;-66
2021/08/12 03:32:07;;;;;;;14.80;12.90;;;15.30;97.50;;;;;;5033862;28;20045;-67
2021/08/12 03:34:35;;;;;;;15.13;13.67;;;15.30;97.50;;;;;;5034051;28;20139;-66
2021/08/12 03:37:01;;;;;;;12.43;11.33;;;15.30;97.60;;;;;;5033754;28;20057;-66
2021/08/12 03:39:27;;;;;;;17.03;15.43;;;15.30;97.60;;;;;;5033475;28;20045;-66
2021/08/12 03:41:52;;;;;;;16.83;15.30;;;15.30;97.60;;;;;;5034186;28;20076;-66
2021/08/12 03:44:18;;;;;;;14.03;12.60;;;15.20;98.00;;;;;;5033685;28;20053;-66
2021/08/12 03:46:44;;;;;;;15.10;13.67;;;15.20;97.70;;;;;;5033176;28;20062;-66
2021/08/12 03:49:10;;;;;;;17.50;15.73;;;15.20;97.80;;;;;;5033505;28;20407;-66
2021/08/12 03:51:36;;;;;;;19.03;17.17;;;15.10;97.80;;;;;;5033875;28;20107;-66
2021/08/12 03:54:01;;;;;;;19.37;17.67;;;15.20;98.00;;;;;;5032820;28;20080;-66
2021/08/12 03:56:27;;;;;;;18.27;16.67;;;15.10;98.00;;;;;;5033885;28;20420;-66
2021/08/12 03:58:53;;;;;;;19.23;17.23;;;15.10;98.00;;;;;;5033796;28;20050;-66
2021/08/12 04:01:18;;;;;;;18.67;16.90;;;15.20;98.00;;;;;;5032788;28;20387;-66
2021/08/12 04:03:44;;;;;;;20.77;18.87;;;15.10;98.00;;;;;;5033621;28;20124;-66
2021/08/12 04:06:10;;;;;;;20.53;18.53;;;15.10;98.10;;;;;;5033359;28;20137;-66
2021/08/12 04:08:36;;;;;;;20.40;18.47;;;15.10;98.10;;;;;;5033047;28;20061;-66
2021/08/12 04:11:06;;;;;;;20.67;18.67;;;15.10;98.10;;;;;;5033841;28;20069;-67
2021/08/12 04:13:31;;;;;;;20.13;17.77;;;15.10;98.00;;;;;;5033538;28;20052;-66
2021/08/12 04:15:58;;;;;;;21.87;19.60;;;15.10;98.00;;;;;;5032732;28;20140;-66
2021/08/12 04:18:24;;;;;;;22.30;20.10;;;15.10;98.10;;;;;;5032961;28;20152;-66
2021/08/12 04:20:50;;;;;;;22.07;20.07;;;15.10;98.10;;;;;;5033133;28;20049;-66
2021/08/12 04:23:16;;;;;;;22.27;20.13;;;15.10;98.10;;;;;;5032184;28;20478;-67
2021/08/12 04:25:42;;;;;;;24.17;21.87;;;15.10;98.10;;;;;;5033286;28;20053;-66
2021/08/12 04:28:08;;;;;;;22.20;19.97;;;15.00;98.00;;;;;;5032324;28;20147;-66
2021/08/12 04:30:33;;;;;;;22.33;20.23;;;15.00;98.10;;;;;;5032498;28;20049;-67
2021/08/12 04:32:59;;;;;;;25.17;22.53;;;15.00;98.10;;;;;;5033151;28;20076;-66
2021/08/12 04:35:25;;;;;;;22.50;20.30;;;15.00;98.10;;;;;;5032644;28;20068;-66
2021/08/12 04:37:51;;;;;;;24.03;21.13;;;15.00;98.10;;;;;;5032871;28;20049;-66
2021/08/12 04:40:19;;;;;;;23.03;20.73;;;15.00;98.20;;;;;;5033040;28;20049;-67
2021/08/12 04:42:49;;;;;;;25.27;22.63;;;14.90;98.20;;;;;;5032601;28;20157;-66
2021/08/12 04:45:16;;;;;;;25.17;22.67;;;15.00;98.30;;;;;;5032644;28;20496;-66
2021/08/12 04:47:43;;;;;;;24.67;22.27;;;15.00;98.30;;;;;;5032758;28;20502;-66
2021/08/12 04:50:10;;;;;;;24.93;22.33;;;15.00;98.40;;;;;;5031882;28;20518;-66
2021/08/12 04:52:39;;;;;;;22.73;20.47;;;15.10;98.40;;;;;;5033218;28;20133;-66
2021/08/12 04:55:06;;;;;;;20.40;18.50;;;15.20;98.40;;;;;;5032684;28;20049;-66
2021/08/12 04:57:34;;;;;;;21.63;19.50;;;15.20;98.40;;;;;;5031933;28;20049;-66
2021/08/12 05:00:00;;;;;;;20.20;18.17;;;15.20;98.30;;;;;;5032450;28;20056;-66
2021/08/12 05:02:26;;;;;;;20.60;18.40;;;15.20;98.30;;;;;;5032431;28;20053;-65
2021/08/12 05:04:52;;;;;;;15.90;14.37;;;15.20;98.30;;;;;;5031605;28;20421;-66
2021/08/12 05:07:18;;;;;;;14.47;13.07;;;15.30;98.30;;;;;;5032489;28;20103;-66
2021/08/12 05:09:44;;;;;;;20.90;18.70;;;15.20;98.30;;;;;;5032596;28;20041;-66
2021/08/12 05:12:09;;;;;;;20.90;18.77;;;15.30;98.40;;;;;;5031524;28;20092;-66
2021/08/12 05:14:35;;;;;;;19.73;17.83;;;15.30;98.30;;;;;;5032274;28;20406;-67
2021/08/12 05:17:01;;;;;;;21.23;19.03;;;15.30;98.30;;;;;;5031686;28;20072;-66
2021/08/12 05:19:27;;;;;;;22.13;19.83;;;15.30;98.30;;;;;;5031517;28;20161;-66
2021/08/12 05:21:52;;;;;;;14.63;13.17;;;15.40;98.20;;;;;;5032495;28;20047;-66
2021/08/12 05:24:18;;;;;;;13.60;12.17;;;15.40;98.10;;;;;;5032043;28;20141;-66
2021/08/12 05:26:44;;;;;;;17.87;12.73;;;15.30;98.00;;;;;;5031558;28;20057;-66
2021/08/12 05:29:09;;;;;;;22.00;19.57;;;15.30;98.00;;;;;;5031833;28;20046;-66
2021/08/12 05:31:41;;;;;;;28.02;23.17;;;15.20;98.10;;;;;;5031879;28;20053;-66
2021/08/12 05:34:06;;;;;;;25.07;22.47;;;15.30;98.30;;;;;;5031150;28;20045;-66
2021/08/12 05:36:32;;;;;;;27.43;24.53;;;15.30;98.30;;;;;;5032016;28;20049;-66
2021/08/12 05:38:58;;;;;;;26.60;23.97;;;15.30;98.60;;;;;;5031347;28;20049;-66
2021/08/12 05:41:24;;;;;;;27.00;24.50;;;15.40;98.20;;;;;;5031684;28;20049;-66
2021/08/12 05:43:50;;;;;;;28.00;25.20;;;15.40;98.20;;;;;;5031819;28;20774;-66
2021/08/12 05:46:16;;;;;;;28.17;25.17;;;15.50;98.20;;;;;;5030766;28;20053;-66
2021/08/12 05:48:42;;;;;;;27.53;24.47;;;15.50;98.10;;;;;;5031898;28;20071;-67
2021/08/12 05:51:08;;;;;;;29.47;26.37;;;15.50;98.00;;;;;;5031824;28;20541;-66
2021/08/12 05:53:33;;;;;;;28.53;25.73;;;15.50;98.00;;;;;;5031264;28;20068;-66
2021/08/12 05:55:59;;;;;;;29.20;25.73;;;15.60;98.10;;;;;;5031667;28;20220;-66
2021/08/12 05:58:25;;;;;;;29.87;26.93;;;15.60;98.00;;;;;;5031569;28;20068;-66
2021/08/12 06:00:50;;;;;;;31.07;27.80;;;15.60;97.90;;;;;;5030862;28;20498;-66
2021/08/12 06:03:16;;;;;;;30.87;27.97;;;15.70;97.90;;;;;;5031498;28;20071;-66
2021/08/12 06:05:42;;;;;;;30.27;27.20;;;15.70;97.90;;;;;;5031735;28;20340;-66
2021/08/12 06:08:11;;;;;;;28.20;25.57;;;15.80;97.80;;;;;;5030467;28;20049;-67
2021/08/12 06:10:40;;;;;;;30.30;27.42;;;15.80;97.70;;;;;;5031863;28;20050;-66
2021/08/12 06:13:06;;;;;;;29.57;26.77;;;16.00;97.60;;;;;;5031493;28;20402;-66
2021/08/12 06:15:33;;;;;;;30.07;26.97;;;16.00;97.40;;;;;;5030589;28;20050;-66
2021/08/12 06:18:04;;;;;;;32.43;28.93;;;16.10;97.30;;;;;;5031371;28;20088;-66
2021/08/12 06:20:30;;;;;;;30.73;27.45;;;16.20;97.20;;;;;;5031772;28;20056;-66
2021/08/12 06:22:55;;;;;;;30.53;27.53;;;16.20;97.10;;;;;;5030911;28;20550;-67
2021/08/12 06:25:21;;;;;;;30.03;27.03;;;16.30;96.90;;;;;;5031196;28;20054;-67
2021/08/12 06:27:47;;;;;;;29.70;27.00;;;16.30;96.80;;;;;;5031323;28;20085;-66
2021/08/12 06:30:13;;;;;;;28.80;26.00;;;16.30;96.80;;;;;;5030699;28;20077;-66
2021/08/12 06:32:38;;;;;;;28.70;25.80;;;16.40;96.70;;;;;;5031513;28;20050;-66
2021/08/12 06:35:06;;;;;;;25.43;23.03;;;16.40;96.70;;;;;;5030461;28;20384;-65
2021/08/12 06:37:49;;;;;;;26.80;24.02;;;16.40;96.70;;;;;;5031760;28;20049;-66
2021/08/12 06:40:17;;;;;;;26.00;23.50;;;16.40;96.70;;;;;;5029666;28;20065;-66
2021/08/12 06:42:44;;;;;;;24.90;22.33;;;16.50;96.70;;;;;;5030952;28;20061;-66
2021/08/12 06:45:10;;;;;;;26.17;23.43;;;16.60;96.60;;;;;;5030698;28;20056;-66
2021/08/12 06:47:36;;;;;;;24.47;21.60;;;16.60;96.60;;;;;;5031304;28;20049;-66
2021/08/12 06:50:04;;;;;;;23.30;20.90;;;16.70;96.50;;;;;;5030240;28;20049;-68
2021/08/12 06:52:31;;;;;;;23.47;20.20;;;16.80;96.40;;;;;;5034498;28;20049;-67
2021/08/12 06:54:56;;;;;;;26.13;21.20;;;16.80;96.20;;;;;;5034191;28;20060;-67
2021/08/12 06:57:22;;;;;;;24.43;21.93;;;16.90;96.10;;;;;;5031985;28;20402;-67
2021/08/12 06:59:48;;;;;;;24.00;21.53;;;16.90;96.10;;;;;;5034210;28;20046;-67
2021/08/12 07:02:13;;;;;;;23.33;21.03;;;17.00;96.00;;;;;;5034630;28;20053;-66
2021/08/12 07:04:41;;;;;;;21.83;18.97;;;17.00;95.80;;;;;;5033903;28;20107;-67
2021/08/12 07:07:07;;;;;;;23.40;20.43;;;17.10;95.80;;;;;;5034332;28;20045;-67
2021/08/12 07:09:34;;;;;;;22.83;20.37;;;17.10;95.80;;;;;;5034276;28;20556;-66
2021/08/12 07:11:59;;;;;;;23.07;20.70;;;17.10;95.80;;;;;;5033567;28;20045;-67
2021/08/12 07:14:25;;;;;;;22.03;19.70;;;17.20;95.80;;;;;;5034603;28;20053;-67
2021/08/12 07:16:51;;;;;;;23.80;19.23;;;17.30;95.90;;;;;;5034253;28;20099;-67
2021/08/12 07:19:16;;;;;;;22.67;20.23;;;17.30;95.70;;;;;;5033416;28;20045;-67
2021/08/12 07:21:42;;;;;;;23.03;20.67;;;17.40;95.60;;;;;;5034243;28;20564;-67
2021/08/12 07:24:08;;;;;;;23.17;20.67;;;17.40;95.80;;;;;;5033830;28;20049;-67
2021/08/12 07:26:36;;;;;;;22.30;19.60;;;17.50;95.40;;;;;;5033401;28;20053;-67
2021/08/12 07:29:03;;;;;;;20.93;18.00;;;17.60;95.30;;;;;;5033843;28;20046;-67
2021/08/12 07:31:29;;;;;;;23.97;18.63;;;17.60;95.00;;;;;;5033346;28;20072;-67
2021/08/12 07:33:54;;;;;;;22.07;19.47;;;17.60;94.90;;;;;;5034002;28;20053;-67
2021/08/12 07:36:20;;;;;;;22.57;18.33;;;17.80;94.90;;;;;;5033723;28;20064;-67
2021/08/12 07:38:46;;;;;;;21.53;17.33;;;17.80;94.80;;;;;;5033223;28;20045;-68
2021/08/12 07:41:12;;;;;;;20.13;17.30;;;17.90;94.50;;;;;;5033856;28;20475;-67
2021/08/12 07:43:38;;;;;;;18.83;16.83;;;18.10;94.30;;;;;;5034676;28;20041;-67
2021/08/12 07:46:04;;;;;;;19.33;17.33;;;18.20;94.20;;;;;;5032650;28;20095;-67
2021/08/12 07:48:30;;;;;;;21.43;17.20;;;18.30;93.80;;;;;;5033734;28;20052;-67
2021/08/12 07:50:56;;;;;;;18.93;16.90;;;18.40;93.20;;;;;;5033643;28;20100;-67
2021/08/12 07:53:22;;;;;;;21.30;16.00;;;18.50;92.70;;;;;;5032983;28;20045;-68
2021/08/12 07:55:48;;;;;;;20.70;15.90;;;18.60;92.70;;;;;;5033520;28;20045;-66
2021/08/12 07:58:13;;;;;;;17.60;15.70;;;18.70;92.70;;;;;;5033200;28;20049;-66
2021/08/12 08:00:39;;;;;;;18.70;16.70;;;18.80;92.60;;;;;;5032522;28;20076;-66
2021/08/12 08:03:05;;;;;;;24.67;16.83;;;18.90;92.50;;;;;;5030365;28;20064;-68
2021/08/12 08:05:30;;;;;;;17.80;15.97;;;19.00;92.30;;;;;;5033105;28;20049;-67
2021/08/12 08:07:57;;;;;;;20.93;16.97;;;19.10;92.30;;;;;;5032396;28;20072;-67
2021/08/12 08:10:25;;;;;;;19.10;16.67;;;19.20;92.00;;;;;;5033044;28;20080;-67
2021/08/12 08:12:50;;;;;;;18.97;16.97;;;19.20;91.60;;;;;;5032946;28;20080;-67
2021/08/12 08:15:21;;;;;;;21.03;16.23;;;19.30;91.50;;;;;;5032032;28;20049;-68
2021/08/12 08:17:46;;;;;;;18.97;15.77;;;19.50;91.60;;;;;;5033005;28;20132;-67
2021/08/12 08:20:13;;;;;;;20.90;17.57;;;19.70;91.20;;;;;;5032918;28;20128;-68
2021/08/12 08:22:39;;;;;;;19.67;17.57;;;19.90;90.60;;;;;;5032170;28;20041;-68
2021/08/12 08:25:06;;;;;;;18.97;16.13;;;20.10;90.50;;;;;;5032519;28;20115;-67
2021/08/12 08:27:34;;;;;;;20.77;16.43;;;20.30;90.40;;;;;;5032421;28;20045;-68
2021/08/12 08:29:59;;;;;;;18.70;16.45;;;20.70;90.00;;;;;;5032912;28;20045;-67
2021/08/12 08:32:26;;;;;;;17.00;15.20;;;20.90;89.60;;;;;;5033093;28;20056;-68
2021/08/12 08:34:54;;;;;;;18.25;15.98;;;21.10;88.50;;;;;;5031803;28;20133;-68
2021/08/12 08:37:21;;;;;;;20.27;16.42;;;21.20;87.30;;;;;;5032409;28;20059;-67
2021/08/12 08:39:47;;;;;;;14.85;13.38;;;21.20;86.60;;;;;;5032707;28;20049;-67
2021/08/12 08:42:12;;;;;;;16.05;14.35;;;21.20;86.60;;;;;;5031690;28;20128;-67
2021/08/12 08:44:40;;;;;;;15.93;14.32;;;21.20;86.30;;;;;;5032521;28;20045;-68
2021/08/12 08:47:09;;;;;;;16.92;14.70;;;21.30;85.90;;;;;;5032257;28;20064;-68
2021/08/12 08:49:38;;;;;;;19.10;14.30;;;21.40;85.10;;;;;;5031612;28;20041;-68
2021/08/12 08:52:08;;;;;;;15.03;12.67;;;21.50;84.00;;;;;;5032227;28;20053;-67
2021/08/12 08:54:36;;;;;;;13.38;10.85;;;21.60;82.80;;;;;;5032310;28;20454;-68
2021/08/12 08:57:04;;;;;;;11.77;10.52;;;21.70;82.20;;;;;;5031433;28;20046;-68
2021/08/12 08:59:34;;;;;;;11.98;10.77;;;21.90;81.60;;;;;;5032319;28;20046;-68
2021/08/12 09:02:01;;;;;;;10.40;9.30;;;21.90;80.40;;;;;;5032172;28;20049;-68
2021/08/12 09:04:26;;;;;;;11.40;8.93;;;22.00;80.00;;;;;;5031857;28;20049;-68
2021/08/12 09:06:52;;;;;;;10.13;8.02;;;22.20;79.60;;;;;;5032256;28;20045;-68
2021/08/12 09:09:18;;;;;;;9.02;7.10;;;22.30;77.70;;;;;;5031823;28;20046;-68
2021/08/12 09:11:43;;;;;;;8.65;6.30;;;22.40;76.10;;;;;;5031521;28;20049;-68
2021/08/12 09:14:28;;;;;;;8.65;5.80;;;22.50;75.50;;;;;;5031470;28;20107;-68
2021/08/12 09:16:54;;;;;;;9.05;6.82;;;22.70;73.90;;;;;;5031093;28;20053;-69
2021/08/12 09:19:21;;;;;;;10.80;7.50;;;22.80;73.90;;;;;;5032152;28;20061;-68
2021/08/12 09:21:48;;;;;;;10.85;7.00;;;22.90;73.70;;;;;;5032590;28;20045;-69
2021/08/12 09:24:13;;;;;;;10.35;7.43;;;23.10;73.60;;;;;;5030814;28;20053;-68
2021/08/12 09:26:41;;;;;;;10.05;6.18;;;23.30;72.50;;;;;;5032040;28;20049;-69
2021/08/12 09:29:08;;;;;;;7.47;5.82;;;23.40;72.70;;;;;;5031441;28;20060;-69
2021/08/12 09:31:34;;;;;;;6.95;5.65;;;23.50;71.30;;;;;;5031128;28;20136;-68
2021/08/12 09:34:11;;;;;;;6.50;5.68;;;23.50;71.20;;;;;;5031780;28;20048;-69
2021/08/12 09:36:39;;;;;;;7.05;5.78;;;23.70;69.40;;;;;;5032140;28;20385;-68
2021/08/12 09:39:13;;;;;;;8.80;5.95;;;23.70;69.00;;;;;;5030402;28;20056;-69
2021/08/12 09:41:55;;;;;;;7.43;5.38;;;23.70;68.50;;;;;;5031526;28;20125;-68
2021/08/12 09:44:32;;;;;;;8.38;4.85;;;23.60;66.90;;;;;;5031105;28;20119;-67
2021/08/12 09:47:00;;;;;;;9.85;5.40;;;23.60;65.90;;;;;;5030886;28;20368;-67
2021/08/12 09:49:35;;;;;;;9.13;5.63;;;23.60;66.40;;;;;;5031908;28;20050;-67
2021/08/12 09:52:14;;;;;;;9.60;6.30;;;23.60;65.50;;;;;;5030683;28;20447;-67
2021/08/12 09:54:40;;;;;;;10.43;7.85;;;23.60;65.20;;;;;;5031972;28;20117;-67
2021/08/12 09:57:17;;;;;;;10.35;7.30;;;23.60;64.20;;;;;;5031224;28;20083;-69
2021/08/12 09:59:50;;;;;;;8.70;7.00;;;23.60;63.90;;;;;;5030700;28;20149;-67
2021/08/12 10:02:16;;;;;;;9.80;6.50;;;23.60;65.20;;;;;;5030841;28;20072;-67
2021/08/12 10:04:42;;;;;;;9.05;6.78;;;23.60;64.80;;;;;;5031213;28;20490;-67
2021/08/12 10:07:08;;;;;;;11.00;8.88;;;23.60;64.70;;;;;;5030592;28;20054;-66
2021/08/12 10:09:41;;;;;;;11.60;8.23;;;23.70;63.90;;;;;;5039634;28;20052;-66
2021/08/12 10:12:08;;;;;;;10.50;7.43;;;23.60;63.80;;;;;;5039350;28;20457;-67
2021/08/12 10:14:34;;;;;;;15.65;8.13;;;23.60;64.10;;;;;;5041778;28;20068;-67
2021/08/12 10:17:02;;;;;;;10.30;8.68;;;23.60;64.10;;;;;;5050797;28;20053;-67
2021/08/12 10:19:28;;;;;;;10.77;8.35;;;23.50;63.90;;;;;;5051442;28;20128;-66
2021/08/12 10:21:54;;;;;;;9.18;8.20;;;23.50;64.40;;;;;;5050255;28;20051;-66
2021/08/12 10:24:24;;;;;;;11.40;9.30;;;23.50;64.40;;;;;;5051065;28;20136;-66
2021/08/12 10:26:51;;;;;;;12.30;9.18;;;23.50;64.40;;;;;;5054380;28;20102;-67
2021/08/12 10:29:23;;;;;;;13.55;9.43;;;23.50;64.80;;;;;;5054103;28;20132;-67
2021/08/12 10:31:49;;;;;;;;;;;23.50;64.20;;;;;;5055016;28;20052;-67
2021/08/12 10:34:15;;;;;;;8.45;7.55;;;23.50;65.70;;;;;;5053955;28;19975;-67
2021/08/12 10:36:40;;;;;;;9.60;6.82;;;23.50;64.30;;;;;;5054431;28;20056;-67
2021/08/12 10:39:08;;;;;;;8.40;6.47;;;23.60;64.40;;;;;;5053239;28;20449;-67
2021/08/12 10:41:39;;;;;;;7.45;5.80;;;23.70;64.70;;;;;;5053793;28;20413;-67
2021/08/12 10:44:05;;;;;;;10.13;7.15;;;23.70;64.90;;;;;;5054454;28;20435;-67
2021/08/12 10:46:35;;;;;;;8.30;6.13;;;23.80;64.70;;;;;;5054558;28;20144;-67
2021/08/12 10:49:20;;;;;;;7.97;5.53;;;23.80;64.40;;;;;;5053892;28;20041;-67
2021/08/12 10:51:50;;;;;;;7.80;5.85;;;23.90;64.40;;;;;;5054648;28;20076;-68
2021/08/12 10:54:17;;;;;;;9.25;5.57;;;23.90;63.30;;;;;;5054915;28;20072;-66
2021/08/12 10:56:44;;;;;;;8.25;5.22;;;24.00;63.10;;;;;;5053609;28;20048;-67
2021/08/12 10:59:09;;;;;;;7.43;5.75;;;24.10;62.80;;;;;;5054369;28;20409;-67
2021/08/12 11:01:37;;;;;;;8.30;5.63;;;24.20;61.30;;;;;;5054527;28;20053;-67
2021/08/12 11:04:04;;;;;;;7.72;6.13;;;24.20;61.40;;;;;;5053555;28;20052;-67
2021/08/12 11:06:38;;;;;;;8.52;5.57;;;24.20;61.20;;;;;;5054258;28;20498;-68
2021/08/12 11:09:06;;;;;;;9.82;7.10;;;24.20;61.30;;;;;;5054150;28;20049;-67
2021/08/12 11:11:31;;;;;;;8.23;7.00;;;24.30;61.00;;;;;;5053923;28;20073;-68
2021/08/12 11:14:07;;;;;;;7.45;5.22;;;24.30;61.00;;;;;;5054621;28;20076;-67
2021/08/12 11:16:41;;;;;;;7.93;6.13;;;24.40;61.20;;;;;;5054166;28;20513;-69
2021/08/12 11:19:08;;;;;;;9.90;6.43;;;24.50;60.70;;;;;;5054221;28;20049;-67
2021/08/12 11:21:35;;;;;;;9.18;5.70;;;24.60;60.60;;;;;;5054230;28;20047;-65
2021/08/12 11:24:04;;;;;;;9.23;5.97;;;24.70;60.90;;;;;;5053205;28;20076;-67
2021/08/12 11:26:43;;;;;;;8.13;6.22;;;24.90;61.00;;;;;;5053939;28;20167;-66
2021/08/12 11:29:28;;;;;;;10.73;6.45;;;25.00;60.30;;;;;;5053952;28;20520;-67
2021/08/12 11:32:13;;;;;;;9.48;6.65;;;25.10;59.10;;;;;;5053325;28;20049;-66
2021/08/12 11:34:45;;;;;;;7.10;5.15;;;25.10;59.40;;;;;;5054392;28;20461;-66
2021/08/12 11:37:21;;;;;;;5.85;5.10;;;25.20;59.80;;;;;;5053513;28;20045;-67
2021/08/12 11:39:55;;;;;;;8.55;5.50;;;25.30;59.00;;;;;;5053095;28;20076;-66
2021/08/12 11:42:36;;;;;;;6.90;5.57;;;25.40;58.60;;;;;;5053499;28;20060;-67
2021/08/12 11:45:08;;;;;;;8.25;5.65;;;25.40;57.90;;;;;;5052677;28;20060;-66
2021/08/12 11:47:34;;;;;;;9.00;6.45;;;25.40;57.60;;;;;;5054165;28;20056;-67
2021/08/12 11:50:02;;;;;;;8.13;5.82;;;25.40;57.50;;;;;;5053705;28;20057;-68
2021/08/12 11:52:48;;;;;;;7.18;6.38;;;25.40;57.60;;;;;;5053109;28;20118;-66
2021/08/12 11:55:22;;;;;;;7.53;6.10;;;25.40;57.60;;;;;;5053642;28;20049;-66
2021/08/12 11:57:54;;;;;;;7.53;5.32;;;25.40;57.30;;;;;;5053604;28;20045;-66
2021/08/12 12:00:21;;;;;;;10.98;6.38;;;25.30;57.40;;;;;;5052579;28;20106;-66
2021/08/12 12:02:56;;;;;;;8.77;6.10;;;25.20;58.00;;;;;;5053837;28;20045;-67
2021/08/12 12:05:25;;;;;;;9.18;6.22;;;25.20;58.70;;;;;;5052941;28;20080;-67
2021/08/12 12:07:53;;;;;;;6.50;4.90;;;25.10;58.40;;;;;;5053080;28;20048;-67
2021/08/12 12:10:39;;;;;;;7.25;5.80;;;25.10;58.50;;;;;;5053070;28;20053;-67
2021/08/12 12:13:14;;;;;;;8.48;5.25;;;25.20;58.10;;;;;;5052198;28;20049;-67
2021/08/12 12:15:41;;;;;;;7.75;5.70;;;25.30;57.80;;;;;;5053032;28;20056;-67
2021/08/12 12:18:07;;;;;;;6.65;5.45;;;25.30;57.40;;;;;;5052400;28;20132;-68
2021/08/12 12:20:36;;;;;;;6.55;5.32;;;25.30;57.00;;;;;;5052284;28;20551;-67
2021/08/12 12:23:07;;;;;;;6.13;5.15;;;25.20;57.00;;;;;;5052330;28;20053;-68
2021/08/12 12:25:35;;;;;;;7.07;4.65;;;25.30;57.50;;;;;;5052854;28;20062;-66
2021/08/12 12:28:02;;;;;;;5.78;5.18;;;25.50;57.80;;;;;;5051748;28;20049;-68
2021/08/12 12:30:31;;;;;;;5.85;4.97;;;25.60;57.60;;;;;;5052328;28;20394;-67
2021/08/12 12:33:03;;;;;;;9.18;5.15;;;25.70;57.10;;;;;;5052886;28;20045;-67
2021/08/12 12:35:30;;;;;;;6.20;5.60;;;25.80;56.20;;;;;;5051832;28;20139;-67
2021/08/12 12:37:57;;;;;;;6.72;5.45;;;25.80;56.30;;;;;;5052725;28;20063;-66